createdAt,value
2023-01-20T00:03:52.930Z,100
2023-01-20T00:08:54.615Z,100
2023-01-20T00:13:56.410Z,100
2023-01-20T00:18:58.415Z,100
2023-01-20T00:24:00.367Z,100
2023-01-20T00:29:01.954Z,97.37654
2023-01-20T00:34:03.613Z,94.83492
2023-01-20T00:39:05.370Z,94.18583
2023-01-20T00:44:06.855Z,92.67701
2023-01-20T00:49:08.339Z,97.76508
2023-01-20T00:54:10.135Z,95.52634
2023-01-20T00:59:12.049Z,92.61305
2023-01-20T01:04:14.042Z,87.65704
2023-01-20T01:09:15.660Z,87.48249
2023-01-20T01:14:17.578Z,85.17449
2023-01-20T01:19:19.777Z,83.17304
2023-01-20T01:24:21.624Z,80.94145
2023-01-20T01:29:23.531Z,76.7931
2023-01-20T01:34:25.372Z,76.46093
2023-01-20T01:39:27.144Z,73.12239
2023-01-20T01:44:28.942Z,70.98465
2023-01-20T01:49:30.498Z,72.29922
2023-01-20T01:54:32.261Z,77.52651
2023-01-20T01:59:33.789Z,79.24352
2023-01-20T02:04:36.010Z,77.93977
2023-01-20T02:09:37.874Z,79.25857
2023-01-20T02:14:39.868Z,80.20477
2023-01-20T02:19:41.669Z,84.11159
2023-01-20T02:24:43.786Z,87.48747
2023-01-20T02:29:45.720Z,84.02919
2023-01-20T02:34:47.752Z,85.63201
2023-01-20T02:39:49.494Z,82.85986
2023-01-20T02:44:51.286Z,85.95166
2023-01-20T02:49:53.116Z,87.47651
2023-01-20T02:54:55.097Z,86.9593
2023-01-20T02:59:57.141Z,85.05234
2023-01-20T03:04:59.126Z,84.92825
2023-01-20T03:10:01.093Z,86.42408
2023-01-20T03:15:02.751Z,85.00524
2023-01-20T03:20:04.224Z,83.45086
2023-01-20T03:25:05.777Z,82.96405
2023-01-20T03:30:07.284Z,83.84051
2023-01-20T03:35:09.006Z,86.16602
2023-01-20T03:40:10.501Z,88.13492
2023-01-20T03:45:12.039Z,91.21334
2023-01-20T03:50:13.856Z,92.68282
2023-01-20T03:55:15.852Z,87.96466
2023-01-20T04:00:17.808Z,89.50406
2023-01-20T04:05:19.597Z,86.43127
2023-01-20T04:10:21.044Z,88.01857
2023-01-20T04:15:22.602Z,92.25976
2023-01-20T04:20:24.290Z,93.14711
2023-01-20T04:25:26.173Z,88.94893
2023-01-20T04:30:27.648Z,87.48091
2023-01-20T04:35:29.303Z,86.25318
2023-01-20T04:40:31.013Z,90.46157
2023-01-20T04:45:32.500Z,88.25646
2023-01-20T04:50:34.260Z,87.1991
2023-01-20T04:55:35.766Z,88.73393
2023-01-20T05:00:37.347Z,85.60054
2023-01-20T05:05:39.314Z,90.0048
2023-01-20T05:10:40.785Z,95.22668
2023-01-20T05:15:42.406Z,97.59904
2023-01-20T05:20:43.869Z,92.61335
2023-01-20T05:25:45.697Z,91.12063
2023-01-20T05:30:47.391Z,86.45972
2023-01-20T05:35:49.157Z,88.60323
2023-01-20T05:40:50.649Z,84.54361
2023-01-20T05:45:52.343Z,85.77135
2023-01-20T05:50:53.863Z,86.62468
2023-01-20T05:55:55.384Z,88.89353
2023-01-20T06:00:56.832Z,86.6612
2023-01-20T06:05:58.532Z,85.32012
2023-01-20T06:11:00.203Z,84.45886
2023-01-20T06:16:01.828Z,84.43166
2023-01-20T06:21:03.416Z,81.37599
2023-01-20T06:26:05.063Z,80.47055
2023-01-20T06:31:06.758Z,73.91289
2023-01-20T06:36:08.566Z,69.07409
2023-01-20T06:41:10.339Z,63.70701
2023-01-20T06:46:11.898Z,64.68477
2023-01-20T06:51:13.529Z,64.78203
2023-01-20T06:56:15.178Z,65.30408
2023-01-20T07:01:16.949Z,60.61108
2023-01-20T07:06:18.691Z,59.68257
2023-01-20T07:11:20.439Z,61.01247
2023-01-20T07:16:21.943Z,56.29859
2023-01-20T07:21:26.124Z,58.87574
2023-01-20T07:26:28.627Z,56.37888
2023-01-20T07:31:30.475Z,56.80378
2023-01-20T07:36:32.748Z,56.57275
2023-01-20T07:41:34.431Z,54.61316
2023-01-20T07:46:36.254Z,56.84134
2023-01-20T07:51:38.364Z,55.17046
2023-01-20T07:56:39.841Z,58.1713
2023-01-20T08:01:41.523Z,57.02729
2023-01-20T08:06:43.601Z,56.63397
2023-01-20T08:11:45.410Z,55.04698
2023-01-20T08:16:47.073Z,53.1007
2023-01-20T08:21:49.193Z,51.21565
2023-01-20T08:26:51.102Z,52.24804
2023-01-20T08:31:53.148Z,51.21965
2023-01-20T08:36:55.386Z,54.50831
2023-01-20T08:41:57.266Z,53.03276
2023-01-20T08:46:59.121Z,50.07801
2023-01-20T08:52:01.227Z,49.82331
2023-01-20T08:57:02.734Z,49.2111
2023-01-20T09:02:04.350Z,45.54505
2023-01-20T09:07:06.267Z,45.83315
2023-01-20T09:12:07.758Z,42.66331
2023-01-20T09:17:09.461Z,43.83371
2023-01-20T09:22:11.124Z,45.28951
2023-01-20T09:27:12.605Z,43.88508
2023-01-20T09:32:14.099Z,43.86041
2023-01-20T09:37:15.820Z,44.21675
2023-01-20T09:42:17.339Z,43.43921
2023-01-20T09:47:19.290Z,44.55304
2023-01-20T09:52:21.203Z,41.3016
2023-01-20T09:57:23.023Z,43.2891
2023-01-20T10:02:24.570Z,39.27866
2023-01-20T10:07:26.592Z,37.23215
2023-01-20T10:12:28.394Z,39.66362
2023-01-20T10:17:30.305Z,36.19181
2023-01-20T10:32:59.937Z,35.63464
2023-01-20T10:38:02.380Z,33.75597
2023-01-20T10:43:04.916Z,36.104
2023-01-20T10:48:06.498Z,36.50593
2023-01-20T10:53:08.307Z,36.39416
2023-01-20T10:58:09.930Z,36.84075
2023-01-20T11:03:11.770Z,34.24689
2023-01-20T11:08:13.663Z,35.26862
2023-01-20T11:13:15.429Z,35.03205
2023-01-20T11:18:16.985Z,33.05253
2023-01-20T11:23:18.692Z,36.20658
2023-01-20T11:28:20.401Z,37.26888
2023-01-20T11:33:22.570Z,33.22862
2023-01-20T11:38:24.479Z,33.66072
2023-01-20T11:43:26.363Z,34.23527
2023-01-20T11:48:28.124Z,33.87611
2023-01-20T11:53:29.816Z,33.96319
2023-01-20T11:58:31.621Z,35.82658
2023-01-20T12:03:33.089Z,34.56088
2023-01-20T12:08:34.898Z,33.10604
2023-01-20T12:13:36.544Z,34.15544
2023-01-20T12:18:38.817Z,32.13864
2023-01-20T12:23:40.443Z,32.90907
2023-01-20T12:28:42.252Z,34.17799
2023-01-20T12:33:43.786Z,34.18768
2023-01-20T12:38:46.012Z,33.838
2023-01-20T12:43:48.065Z,34.82853
2023-01-20T12:48:50.069Z,33.21284
2023-01-20T12:53:52.136Z,35.45746
2023-01-20T12:58:53.906Z,38.66033
2023-01-20T13:03:56.322Z,38.58458
2023-01-20T13:08:59.137Z,40.93185
2023-01-20T13:14:01.095Z,40.62478
2023-01-20T13:19:03.085Z,38.43861
2023-01-20T13:24:04.865Z,39.78851
2023-01-20T13:29:06.702Z,38.17889
2023-01-20T13:34:08.676Z,36.00084
2023-01-20T13:39:11.663Z,34.70367
2023-01-20T13:44:13.869Z,35.64565
2023-01-20T13:49:15.876Z,34.38093
2023-01-20T13:54:18.212Z,32.73182
2023-01-20T13:59:20.240Z,32.91314
2023-01-20T14:04:21.938Z,34.34342
2023-01-20T14:09:24.406Z,35.12318
2023-01-20T14:14:26.624Z,36.54101
2023-01-20T14:19:28.863Z,37.13827
2023-01-20T14:24:31.289Z,34.92875
2023-01-20T14:29:33.171Z,34.5038
2023-01-20T14:34:35.530Z,35.17641
2023-01-20T14:39:37.905Z,34.88535
2023-01-20T14:44:39.937Z,36.44912
2023-01-20T14:49:41.925Z,34.6559
2023-01-20T14:54:43.991Z,39.51633
2023-01-20T14:59:45.932Z,44.31727
2023-01-20T15:04:47.958Z,51.14586
2023-01-20T15:09:50.914Z,53.25212
2023-01-20T15:14:52.820Z,49.25794
2023-01-20T15:19:55.143Z,48.65876
2023-01-20T15:24:56.905Z,50.83363
2023-01-20T15:29:58.928Z,51.3503
2023-01-20T15:35:01.134Z,49.3531
2023-01-20T15:40:03.818Z,48.10747
2023-01-20T15:45:06.092Z,48.41535
2023-01-20T15:50:08.084Z,50.61174
2023-01-20T15:55:09.695Z,48.89337
2023-01-20T16:00:11.412Z,47.96369
2023-01-20T16:05:15.693Z,46.48241
2023-01-20T16:10:19.093Z,44.73345
2023-01-20T16:15:20.959Z,44.89299
2023-01-20T16:20:22.766Z,44.95182
2023-01-20T16:25:24.465Z,45.51916
2023-01-20T16:30:26.214Z,45.1733
2023-01-20T16:35:28.254Z,46.79251
2023-01-20T16:40:30.172Z,46.79764
2023-01-20T16:45:31.967Z,47.8609
2023-01-20T16:50:34.005Z,49.99899
2023-01-20T16:55:35.990Z,52.88707
2023-01-20T17:00:37.767Z,55.22267
2023-01-20T17:05:39.883Z,56.20735
2023-01-20T17:10:41.755Z,56.92222
2023-01-20T17:15:43.567Z,58.25968
2023-01-20T17:20:45.531Z,57.31046
2023-01-20T17:25:47.422Z,59.75271
2023-01-20T17:30:49.295Z,59.26269
2023-01-20T17:35:51.511Z,58.48989
2023-01-20T17:40:53.715Z,59.91207
2023-01-20T17:45:55.436Z,63.66764
2023-01-20T17:50:57.599Z,62.23788
2023-01-20T17:56:11.716Z,62.61217
2023-01-20T18:01:14.760Z,61.45819
2023-01-20T18:06:16.884Z,58.81948
2023-01-20T18:11:18.672Z,60.96349
2023-01-20T18:16:20.286Z,64.28033
2023-01-20T18:21:22.418Z,64.47718
2023-01-20T18:26:24.198Z,65.34554
2023-01-20T18:31:26.307Z,65.3382
2023-01-20T18:36:27.979Z,67.81355
2023-01-20T18:41:29.967Z,65.53153
2023-01-20T18:46:31.868Z,64.04312
2023-01-20T18:51:34.336Z,65.4294
2023-01-20T18:56:36.331Z,64.30813
2023-01-20T19:01:38.395Z,64.65616
2023-01-20T19:06:40.594Z,63.27974
2023-01-20T19:11:42.609Z,61.60705
2023-01-20T19:16:44.512Z,62.79606
2023-01-20T19:21:46.660Z,64.24165
2023-01-20T19:26:49.080Z,63.63744
2023-01-20T19:31:51.361Z,64.78414
2023-01-20T19:36:53.634Z,64.46842
2023-01-20T19:41:55.852Z,64.36392
2023-01-20T19:46:57.909Z,63.87623
2023-01-20T19:51:59.806Z,64.39509
2023-01-20T19:57:01.675Z,65.14546
2023-01-20T20:02:03.660Z,67.35252
2023-01-20T20:07:05.768Z,67.91856
2023-01-20T20:12:07.788Z,67.39951
2023-01-20T20:17:09.452Z,68.12699
2023-01-20T20:22:10.969Z,67.67213
2023-01-20T20:27:12.785Z,65.75093
2023-01-20T20:32:14.393Z,68.19761
2023-01-20T20:37:16.289Z,65.66016
2023-01-20T20:42:18.227Z,66.67566
2023-01-20T20:47:20.003Z,67.65174
2023-01-20T20:52:21.807Z,69.0093
2023-01-20T20:57:23.512Z,66.51952
2023-01-20T21:02:25.578Z,66.15358
2023-01-20T21:07:27.305Z,67.55057
2023-01-20T21:12:29.611Z,69.748
2023-01-20T21:17:31.501Z,66.90071
2023-01-20T21:22:33.736Z,66.76723
2023-01-20T21:27:35.999Z,69.25592
2023-01-20T21:32:37.843Z,71.1004
2023-01-20T21:37:39.952Z,69.11187
2023-01-20T21:42:41.935Z,68.43027
2023-01-20T21:47:43.615Z,68.29574
2023-01-20T21:52:45.602Z,68.11725
2023-01-20T21:57:49.484Z,73.09254
2023-01-20T22:02:52.800Z,71.2223
2023-01-20T22:07:54.794Z,69.29199
2023-01-20T22:12:56.869Z,70.44581
2023-01-20T22:17:58.741Z,70.0488
2023-01-20T22:23:01.049Z,70.60553
2023-01-20T22:28:02.926Z,70.23959
2023-01-20T22:33:04.888Z,70.00672
2023-01-20T22:38:06.811Z,70.28457
2023-01-20T22:43:08.612Z,69.08354
2023-01-20T22:48:10.269Z,74.81846
2023-01-20T22:53:11.980Z,73.65366
2023-01-20T22:58:13.521Z,73.68916
2023-01-20T23:03:15.112Z,73.43928
2023-01-20T23:08:17.183Z,73.74346
2023-01-20T23:13:19.089Z,73.46504
2023-01-20T23:18:21.021Z,71.923
2023-01-20T23:23:22.655Z,73.20968
2023-01-20T23:28:24.202Z,72.69915
2023-01-20T23:33:25.664Z,72.95757
2023-01-20T23:38:27.606Z,76.13701
2023-01-20T23:43:29.498Z,75.40761
2023-01-20T23:48:31.277Z,75.79072
2023-01-20T23:53:33.727Z,77.24472
2023-01-20T23:58:35.495Z,79.92157
